sensor_id;sensor_type;location;lat;lon;timestamp;P1;durP1;ratioP1;P2;durP2;ratioP2
6027;SDS011;3042;43.194;27.646;2022-10-12T00:01:07;5.80;;;3.73;;
6027;SDS011;3042;43.194;27.646;2022-10-12T00:03:34;9.47;;;4.03;;
6027;SDS011;3042;43.194;27.646;2022-10-12T00:06:02;12.60;;;4.70;;
6027;SDS011;3042;43.194;27.646;2022-10-12T00:08:32;7.30;;;4.23;;
6027;SDS011;3042;43.194;27.646;2022-10-12T00:11:02;5.57;;;4.23;;
6027;SDS011;3042;43.194;27.646;2022-10-12T00:13:30;6.87;;;3.50;;
6027;SDS011;3042;43.194;27.646;2022-10-12T00:16:00;5.00;;;3.50;;
6027;SDS011;3042;43.194;27.646;2022-10-12T00:18:28;11.47;;;4.60;;
6027;SDS011;3042;43.194;27.646;2022-10-12T00:21:05;23.23;;;5.53;;
6027;SDS011;3042;43.194;27.646;2022-10-12T00:23:34;13.67;;;7.30;;
6027;SDS011;3042;43.194;27.646;2022-10-12T00:26:04;12.47;;;5.90;;
6027;SDS011;3042;43.194;27.646;2022-10-12T00:28:34;22.63;;;6.67;;
6027;SDS011;3042;43.194;27.646;2022-10-12T00:31:05;19.00;;;7.60;;
6027;SDS011;3042;43.194;27.646;2022-10-12T00:33:33;19.23;;;6.80;;
6027;SDS011;3042;43.194;27.646;2022-10-12T00:36:09;16.37;;;7.40;;
6027;SDS011;3042;43.194;27.646;2022-10-12T00:38:37;18.50;;;8.13;;
6027;SDS011;3042;43.194;27.646;2022-10-12T00:41:05;28.47;;;8.03;;
6027;SDS011;3042;43.194;27.646;2022-10-12T00:43:34;17.43;;;7.83;;
6027;SDS011;3042;43.194;27.646;2022-10-12T00:46:03;21.87;;;9.20;;
6027;SDS011;3042;43.194;27.646;2022-10-12T00:48:39;20.10;;;10.13;;
6027;SDS011;3042;43.194;27.646;2022-10-12T00:51:08;19.30;;;8.60;;
6027;SDS011;3042;43.194;27.646;2022-10-12T00:53:39;14.23;;;4.37;;
6027;SDS011;3042;43.194;27.646;2022-10-12T00:56:11;8.47;;;4.60;;
6027;SDS011;3042;43.194;27.646;2022-10-12T00:58:43;10.00;;;4.80;;
6027;SDS011;3042;43.194;27.646;2022-10-12T01:01:11;6.10;;;4.67;;
6027;SDS011;3042;43.194;27.646;2022-10-12T01:03:38;13.00;;;4.60;;
6027;SDS011;3042;43.194;27.646;2022-10-12T01:06:07;5.00;;;4.60;;
6027;SDS011;3042;43.194;27.646;2022-10-12T01:08:35;21.33;;;6.00;;
6027;SDS011;3042;43.194;27.646;2022-10-12T01:11:03;13.30;;;5.97;;
6027;SDS011;3042;43.194;27.646;2022-10-12T01:13:32;12.80;;;4.90;;
6027;SDS011;3042;43.194;27.646;2022-10-12T01:16:01;10.50;;;5.60;;
6027;SDS011;3042;43.194;27.646;2022-10-12T01:18:33;11.73;;;6.60;;
6027;SDS011;3042;43.194;27.646;2022-10-12T01:21:09;19.47;;;6.47;;
6027;SDS011;3042;43.194;27.646;2022-10-12T01:23:47;17.53;;;6.40;;
6027;SDS011;3042;43.194;27.646;2022-10-12T01:26:39;13.87;;;6.80;;
6027;SDS011;3042;43.194;27.646;2022-10-12T01:29:26;9.13;;;5.70;;
6027;SDS011;3042;43.194;27.646;2022-10-12T01:32:15;17.47;;;5.97;;
6027;SDS011;3042;43.194;27.646;2022-10-12T01:34:46;10.10;;;6.60;;
6027;SDS011;3042;43.194;27.646;2022-10-12T01:37:21;9.70;;;8.30;;
6027;SDS011;3042;43.194;27.646;2022-10-12T01:39:56;14.43;;;8.43;;
6027;SDS011;3042;43.194;27.646;2022-10-12T01:42:30;7.17;;;6.47;;
6027;SDS011;3042;43.194;27.646;2022-10-12T01:45:00;13.07;;;6.60;;
6027;SDS011;3042;43.194;27.646;2022-10-12T01:47:31;14.73;;;5.93;;
6027;SDS011;3042;43.194;27.646;2022-10-12T01:49:59;16.33;;;7.63;;
6027;SDS011;3042;43.194;27.646;2022-10-12T01:52:28;9.80;;;6.67;;
6027;SDS011;3042;43.194;27.646;2022-10-12T01:55:05;11.00;;;7.13;;
6027;SDS011;3042;43.194;27.646;2022-10-12T02:00:48;18.42;;;9.00;;
6027;SDS011;3042;43.194;27.646;2022-10-12T02:03:26;21.57;;;8.07;;
6027;SDS011;3042;43.194;27.646;2022-10-12T02:06:01;15.13;;;9.43;;
6027;SDS011;3042;43.194;27.646;2022-10-12T02:08:32;22.27;;;9.27;;
6027;SDS011;3042;43.194;27.646;2022-10-12T02:11:06;9.63;;;8.03;;
6027;SDS011;3042;43.194;27.646;2022-10-12T02:13:37;21.67;;;5.97;;
6027;SDS011;3042;43.194;27.646;2022-10-12T02:16:08;25.60;;;8.63;;
6027;SDS011;3042;43.194;27.646;2022-10-12T02:18:41;9.40;;;8.33;;
6027;SDS011;3042;43.194;27.646;2022-10-12T02:21:11;17.40;;;9.50;;
6027;SDS011;3042;43.194;27.646;2022-10-12T02:23:41;24.50;;;9.90;;
6027;SDS011;3042;43.194;27.646;2022-10-12T02:26:10;29.97;;;9.80;;
6027;SDS011;3042;43.194;27.646;2022-10-12T02:28:40;29.53;;;10.47;;
6027;SDS011;3042;43.194;27.646;2022-10-12T02:31:13;41.50;;;15.93;;
6027;SDS011;3042;43.194;27.646;2022-10-12T02:33:49;38.47;;;14.03;;
6027;SDS011;3042;43.194;27.646;2022-10-12T02:36:24;38.80;;;15.03;;
6027;SDS011;3042;43.194;27.646;2022-10-12T02:39:00;53.20;;;14.80;;
6027;SDS011;3042;43.194;27.646;2022-10-12T02:41:32;45.33;;;15.27;;
6027;SDS011;3042;43.194;27.646;2022-10-12T02:44:03;61.63;;;19.73;;
6027;SDS011;3042;43.194;27.646;2022-10-12T02:46:34;49.60;;;18.57;;
6027;SDS011;3042;43.194;27.646;2022-10-12T02:49:04;41.77;;;18.60;;
6027;SDS011;3042;43.194;27.646;2022-10-12T02:51:33;11.63;;;9.07;;
6027;SDS011;3042;43.194;27.646;2022-10-12T02:54:01;9.07;;;8.20;;
6027;SDS011;3042;43.194;27.646;2022-10-12T02:56:29;8.63;;;7.70;;
6027;SDS011;3042;43.194;27.646;2022-10-12T02:58:56;11.20;;;7.13;;
6027;SDS011;3042;43.194;27.646;2022-10-12T03:01:24;22.17;;;10.00;;
6027;SDS011;3042;43.194;27.646;2022-10-12T03:03:51;15.87;;;8.10;;
6027;SDS011;3042;43.194;27.646;2022-10-12T03:06:20;28.07;;;10.60;;
6027;SDS011;3042;43.194;27.646;2022-10-12T03:08:48;18.90;;;8.23;;
6027;SDS011;3042;43.194;27.646;2022-10-12T03:11:15;22.07;;;8.40;;
6027;SDS011;3042;43.194;27.646;2022-10-12T03:13:42;14.50;;;7.80;;
6027;SDS011;3042;43.194;27.646;2022-10-12T03:16:10;19.93;;;10.47;;
6027;SDS011;3042;43.194;27.646;2022-10-12T03:18:37;13.03;;;10.80;;
6027;SDS011;3042;43.194;27.646;2022-10-12T03:21:05;16.00;;;10.43;;
6027;SDS011;3042;43.194;27.646;2022-10-12T03:23:34;8.70;;;7.53;;
6027;SDS011;3042;43.194;27.646;2022-10-12T03:26:01;8.13;;;7.33;;
6027;SDS011;3042;43.194;27.646;2022-10-12T03:28:28;11.27;;;9.17;;
6027;SDS011;3042;43.194;27.646;2022-10-12T03:30:56;18.33;;;10.33;;
6027;SDS011;3042;43.194;27.646;2022-10-12T03:33:24;6.47;;;4.70;;
6027;SDS011;3042;43.194;27.646;2022-10-12T03:35:51;10.73;;;4.87;;
6027;SDS011;3042;43.194;27.646;2022-10-12T03:38:19;9.20;;;5.57;;
6027;SDS011;3042;43.194;27.646;2022-10-12T03:40:48;14.80;;;5.90;;
6027;SDS011;3042;43.194;27.646;2022-10-12T03:43:15;5.57;;;4.90;;
6027;SDS011;3042;43.194;27.646;2022-10-12T03:45:42;8.70;;;4.80;;
6027;SDS011;3042;43.194;27.646;2022-10-12T03:48:09;16.60;;;7.73;;
6027;SDS011;3042;43.194;27.646;2022-10-12T03:50:37;11.00;;;6.63;;
6027;SDS011;3042;43.194;27.646;2022-10-12T03:53:04;16.47;;;11.97;;
6027;SDS011;3042;43.194;27.646;2022-10-12T03:55:32;19.30;;;7.87;;
6027;SDS011;3042;43.194;27.646;2022-10-12T03:58:01;22.57;;;9.07;;
6027;SDS011;3042;43.194;27.646;2022-10-12T04:00:28;21.10;;;9.63;;
6027;SDS011;3042;43.194;27.646;2022-10-12T04:02:55;17.37;;;10.80;;
6027;SDS011;3042;43.194;27.646;2022-10-12T04:05:23;15.17;;;11.07;;
6027;SDS011;3042;43.194;27.646;2022-10-12T04:07:50;29.80;;;21.87;;
6027;SDS011;3042;43.194;27.646;2022-10-12T04:10:17;30.13;;;11.67;;
6027;SDS011;3042;43.194;27.646;2022-10-12T04:12:44;29.83;;;26.77;;
6027;SDS011;3042;43.194;27.646;2022-10-12T04:15:13;49.43;;;42.30;;
6027;SDS011;3042;43.194;27.646;2022-10-12T04:17:42;36.17;;;32.07;;
6027;SDS011;3042;43.194;27.646;2022-10-12T04:20:10;71.90;;;43.73;;
6027;SDS011;3042;43.194;27.646;2022-10-12T04:22:38;49.53;;;32.03;;
6027;SDS011;3042;43.194;27.646;2022-10-12T04:25:06;67.17;;;40.63;;
6027;SDS011;3042;43.194;27.646;2022-10-12T04:27:33;51.05;;;35.08;;
6027;SDS011;3042;43.194;27.646;2022-10-12T04:30:00;76.83;;;44.77;;
6027;SDS011;3042;43.194;27.646;2022-10-12T04:32:29;55.30;;;41.60;;
6027;SDS011;3042;43.194;27.646;2022-10-12T04:34:57;43.53;;;37.77;;
6027;SDS011;3042;43.194;27.646;2022-10-12T04:37:25;31.73;;;11.07;;
6027;SDS011;3042;43.194;27.646;2022-10-12T04:39:53;77.17;;;49.40;;
6027;SDS011;3042;43.194;27.646;2022-10-12T04:42:20;80.13;;;53.57;;
6027;SDS011;3042;43.194;27.646;2022-10-12T04:44:47;77.33;;;51.40;;
6027;SDS011;3042;43.194;27.646;2022-10-12T04:47:14;70.63;;;51.80;;
6027;SDS011;3042;43.194;27.646;2022-10-12T04:49:43;68.40;;;47.30;;
6027;SDS011;3042;43.194;27.646;2022-10-12T04:52:11;53.07;;;35.60;;
6027;SDS011;3042;43.194;27.646;2022-10-12T04:54:38;57.10;;;41.87;;
6027;SDS011;3042;43.194;27.646;2022-10-12T04:57:05;60.87;;;46.20;;
6027;SDS011;3042;43.194;27.646;2022-10-12T04:59:32;78.77;;;50.63;;
6027;SDS011;3042;43.194;27.646;2022-10-12T05:02:00;63.87;;;42.00;;
6027;SDS011;3042;43.194;27.646;2022-10-12T05:04:27;36.83;;;23.87;;
6027;SDS011;3042;43.194;27.646;2022-10-12T05:06:55;44.63;;;28.70;;
6027;SDS011;3042;43.194;27.646;2022-10-12T05:09:23;23.40;;;15.10;;
6027;SDS011;3042;43.194;27.646;2022-10-12T05:11:50;38.53;;;25.30;;
6027;SDS011;3042;43.194;27.646;2022-10-12T05:14:17;26.63;;;19.10;;
6027;SDS011;3042;43.194;27.646;2022-10-12T05:16:44;28.97;;;26.47;;
6027;SDS011;3042;43.194;27.646;2022-10-12T05:19:12;49.57;;;38.33;;
6027;SDS011;3042;43.194;27.646;2022-10-12T05:21:39;53.47;;;39.97;;
6027;SDS011;3042;43.194;27.646;2022-10-12T05:24:08;44.10;;;36.87;;
6027;SDS011;3042;43.194;27.646;2022-10-12T05:26:36;58.13;;;34.40;;
6027;SDS011;3042;43.194;27.646;2022-10-12T05:29:03;63.50;;;35.13;;
6027;SDS011;3042;43.194;27.646;2022-10-12T05:31:30;52.07;;;31.73;;
6027;SDS011;3042;43.194;27.646;2022-10-12T05:33:58;45.27;;;39.63;;
6027;SDS011;3042;43.194;27.646;2022-10-12T05:36:25;69.13;;;48.17;;
6027;SDS011;3042;43.194;27.646;2022-10-12T05:38:52;66.07;;;44.60;;
6027;SDS011;3042;43.194;27.646;2022-10-12T05:41:21;68.00;;;41.93;;
6027;SDS011;3042;43.194;27.646;2022-10-12T05:43:48;79.87;;;48.17;;
6027;SDS011;3042;43.194;27.646;2022-10-12T05:46:17;74.93;;;48.17;;
6027;SDS011;3042;43.194;27.646;2022-10-12T05:48:44;68.37;;;48.90;;
6027;SDS011;3042;43.194;27.646;2022-10-12T05:51:12;53.13;;;44.17;;
6027;SDS011;3042;43.194;27.646;2022-10-12T05:53:39;70.07;;;52.37;;
6027;SDS011;3042;43.194;27.646;2022-10-12T05:56:06;71.20;;;52.47;;
6027;SDS011;3042;43.194;27.646;2022-10-12T05:58:35;113.00;;;59.60;;
6027;SDS011;3042;43.194;27.646;2022-10-12T06:01:03;76.67;;;52.10;;
6027;SDS011;3042;43.194;27.646;2022-10-12T06:03:31;85.43;;;60.43;;
6027;SDS011;3042;43.194;27.646;2022-10-12T06:05:58;100.60;;;64.47;;
6027;SDS011;3042;43.194;27.646;2022-10-12T06:08:26;111.70;;;60.27;;
6027;SDS011;3042;43.194;27.646;2022-10-12T06:10:54;113.93;;;68.70;;
6027;SDS011;3042;43.194;27.646;2022-10-12T06:13:21;104.20;;;68.33;;
6027;SDS011;3042;43.194;27.646;2022-10-12T06:15:51;115.23;;;69.43;;
6027;SDS011;3042;43.194;27.646;2022-10-12T06:18:23;77.17;;;55.47;;
6027;SDS011;3042;43.194;27.646;2022-10-12T06:20:56;111.67;;;62.53;;
6027;SDS011;3042;43.194;27.646;2022-10-12T06:23:41;102.10;;;65.90;;
6027;SDS011;3042;43.194;27.646;2022-10-12T06:26:24;105.97;;;67.60;;
6027;SDS011;3042;43.194;27.646;2022-10-12T06:29:02;116.10;;;64.77;;
6027;SDS011;3042;43.194;27.646;2022-10-12T06:31:43;95.87;;;64.03;;
6027;SDS011;3042;43.194;27.646;2022-10-12T06:34:19;101.23;;;65.40;;
6027;SDS011;3042;43.194;27.646;2022-10-12T06:37:05;87.40;;;62.70;;
6027;SDS011;3042;43.194;27.646;2022-10-12T06:39:40;105.03;;;60.83;;
6027;SDS011;3042;43.194;27.646;2022-10-12T06:42:18;96.70;;;71.33;;
6027;SDS011;3042;43.194;27.646;2022-10-12T06:44:45;81.73;;;57.37;;
6027;SDS011;3042;43.194;27.646;2022-10-12T06:47:13;98.20;;;64.53;;
6027;SDS011;3042;43.194;27.646;2022-10-12T06:49:41;95.97;;;65.27;;
6027;SDS011;3042;43.194;27.646;2022-10-12T06:52:08;104.73;;;74.03;;
6027;SDS011;3042;43.194;27.646;2022-10-12T06:54:35;90.00;;;64.87;;
6027;SDS011;3042;43.194;27.646;2022-10-12T06:57:06;91.83;;;63.63;;
6027;SDS011;3042;43.194;27.646;2022-10-12T06:59:33;104.60;;;67.90;;
6027;SDS011;3042;43.194;27.646;2022-10-12T07:02:00;98.47;;;77.80;;
6027;SDS011;3042;43.194;27.646;2022-10-12T07:04:29;131.27;;;85.57;;
6027;SDS011;3042;43.194;27.646;2022-10-12T07:06:56;146.90;;;86.53;;
6027;SDS011;3042;43.194;27.646;2022-10-12T07:09:23;105.93;;;88.93;;
6027;SDS011;3042;43.194;27.646;2022-10-12T07:11:51;156.30;;;90.87;;
6027;SDS011;3042;43.194;27.646;2022-10-12T07:14:18;89.37;;;71.77;;
6027;SDS011;3042;43.194;27.646;2022-10-12T07:16:45;104.43;;;75.63;;
6027;SDS011;3042;43.194;27.646;2022-10-12T07:19:13;108.53;;;88.53;;
6027;SDS011;3042;43.194;27.646;2022-10-12T07:21:44;80.83;;;71.63;;
6027;SDS011;3042;43.194;27.646;2022-10-12T07:24:11;121.03;;;85.37;;
6027;SDS011;3042;43.194;27.646;2022-10-12T07:26:39;90.97;;;74.33;;
6027;SDS011;3042;43.194;27.646;2022-10-12T07:29:06;86.80;;;74.17;;
6027;SDS011;3042;43.194;27.646;2022-10-12T07:31:34;94.37;;;79.67;;
6027;SDS011;3042;43.194;27.646;2022-10-12T07:34:02;107.63;;;94.00;;
6027;SDS011;3042;43.194;27.646;2022-10-12T07:36:29;98.70;;;87.87;;
6027;SDS011;3042;43.194;27.646;2022-10-12T07:38:58;111.97;;;98.30;;
6027;SDS011;3042;43.194;27.646;2022-10-12T07:41:25;95.27;;;83.97;;
6027;SDS011;3042;43.194;27.646;2022-10-12T07:43:53;135.17;;;109.23;;
6027;SDS011;3042;43.194;27.646;2022-10-12T07:46:21;116.07;;;100.57;;
6027;SDS011;3042;43.194;27.646;2022-10-12T07:48:49;125.63;;;92.87;;
6027;SDS011;3042;43.194;27.646;2022-10-12T07:51:17;104.07;;;89.43;;
6027;SDS011;3042;43.194;27.646;2022-10-12T07:53:44;99.00;;;81.20;;
6027;SDS011;3042;43.194;27.646;2022-10-12T07:56:13;116.20;;;88.77;;
6027;SDS011;3042;43.194;27.646;2022-10-12T07:58:40;121.63;;;89.97;;
6027;SDS011;3042;43.194;27.646;2022-10-12T08:01:08;104.10;;;89.47;;
6027;SDS011;3042;43.194;27.646;2022-10-12T08:03:35;93.30;;;81.17;;
6027;SDS011;3042;43.194;27.646;2022-10-12T08:06:09;91.60;;;82.17;;
6027;SDS011;3042;43.194;27.646;2022-10-12T08:08:37;122.03;;;94.43;;
6027;SDS011;3042;43.194;27.646;2022-10-12T08:11:05;104.77;;;93.30;;
6027;SDS011;3042;43.194;27.646;2022-10-12T08:13:35;98.10;;;87.87;;
6027;SDS011;3042;43.194;27.646;2022-10-12T08:16:07;90.37;;;78.60;;
6027;SDS011;3042;43.194;27.646;2022-10-12T08:18:37;120.77;;;88.17;;
6027;SDS011;3042;43.194;27.646;2022-10-12T08:21:04;76.27;;;67.40;;
6027;SDS011;3042;43.194;27.646;2022-10-12T08:23:33;117.63;;;78.70;;
6027;SDS011;3042;43.194;27.646;2022-10-12T08:26:01;134.87;;;95.00;;
6027;SDS011;3042;43.194;27.646;2022-10-12T08:28:29;81.33;;;74.50;;
6027;SDS011;3042;43.194;27.646;2022-10-12T08:30:58;96.57;;;86.60;;
6027;SDS011;3042;43.194;27.646;2022-10-12T08:33:27;104.77;;;91.17;;
6027;SDS011;3042;43.194;27.646;2022-10-12T08:35:55;95.87;;;84.17;;
6027;SDS011;3042;43.194;27.646;2022-10-12T08:38:25;100.17;;;85.33;;
6027;SDS011;3042;43.194;27.646;2022-10-12T08:40:55;120.93;;;89.67;;
6027;SDS011;3042;43.194;27.646;2022-10-12T08:43:31;95.73;;;82.83;;
6027;SDS011;3042;43.194;27.646;2022-10-12T08:46:07;112.73;;;88.93;;
6027;SDS011;3042;43.194;27.646;2022-10-12T08:48:37;104.30;;;92.47;;
6027;SDS011;3042;43.194;27.646;2022-10-12T08:51:13;96.13;;;85.17;;
6027;SDS011;3042;43.194;27.646;2022-10-12T08:53:45;103.50;;;81.70;;
6027;SDS011;3042;43.194;27.646;2022-10-12T08:56:15;97.83;;;85.23;;
6027;SDS011;3042;43.194;27.646;2022-10-12T08:58:44;92.30;;;78.77;;
6027;SDS011;3042;43.194;27.646;2022-10-12T09:01:17;96.20;;;86.13;;
6027;SDS011;3042;43.194;27.646;2022-10-12T09:04:04;103.73;;;87.47;;
6027;SDS011;3042;43.194;27.646;2022-10-12T09:06:38;91.47;;;81.33;;
6027;SDS011;3042;43.194;27.646;2022-10-12T09:09:13;84.20;;;76.03;;
6027;SDS011;3042;43.194;27.646;2022-10-12T09:11:56;88.07;;;74.60;;
6027;SDS011;3042;43.194;27.646;2022-10-12T09:14:41;104.97;;;86.87;;
6027;SDS011;3042;43.194;27.646;2022-10-12T09:17:16;109.53;;;97.63;;
6027;SDS011;3042;43.194;27.646;2022-10-12T09:19:51;103.60;;;92.27;;
6027;SDS011;3042;43.194;27.646;2022-10-12T09:22:28;106.63;;;95.73;;
6027;SDS011;3042;43.194;27.646;2022-10-12T09:24:56;107.57;;;96.87;;
6027;SDS011;3042;43.194;27.646;2022-10-12T09:27:26;109.10;;;97.27;;
6027;SDS011;3042;43.194;27.646;2022-10-12T09:29:56;100.63;;;90.43;;
6027;SDS011;3042;43.194;27.646;2022-10-12T09:32:32;98.87;;;90.00;;
6027;SDS011;3042;43.194;27.646;2022-10-12T09:35:24;107.82;;;97.32;;
6027;SDS011;3042;43.194;27.646;2022-10-12T09:37:51;98.57;;;88.80;;
6027;SDS011;3042;43.194;27.646;2022-10-12T09:40:20;112.03;;;94.40;;
6027;SDS011;3042;43.194;27.646;2022-10-12T09:42:51;102.80;;;88.67;;
6027;SDS011;3042;43.194;27.646;2022-10-12T09:45:21;87.70;;;78.90;;
6027;SDS011;3042;43.194;27.646;2022-10-12T09:50:49;84.70;;;76.03;;
6027;SDS011;3042;43.194;27.646;2022-10-12T09:53:29;91.57;;;82.87;;
6027;SDS011;3042;43.194;27.646;2022-10-12T09:56:03;85.30;;;79.38;;
6027;SDS011;3042;43.194;27.646;2022-10-12T09:58:35;89.47;;;81.67;;
6027;SDS011;3042;43.194;27.646;2022-10-12T10:01:18;95.37;;;86.53;;
6027;SDS011;3042;43.194;27.646;2022-10-12T10:03:49;100.20;;;75.07;;
6027;SDS011;3042;43.194;27.646;2022-10-12T10:06:33;63.93;;;58.17;;
6027;SDS011;3042;43.194;27.646;2022-10-12T10:09:00;70.47;;;64.37;;
6027;SDS011;3042;43.194;27.646;2022-10-12T10:11:28;78.87;;;72.27;;
6027;SDS011;3042;43.194;27.646;2022-10-12T10:13:58;65.50;;;60.58;;
6027;SDS011;3042;43.194;27.646;2022-10-12T10:16:27;85.83;;;78.77;;
6027;SDS011;3042;43.194;27.646;2022-10-12T10:18:58;87.83;;;80.83;;
6027;SDS011;3042;43.194;27.646;2022-10-12T10:21:29;67.90;;;62.07;;
6027;SDS011;3042;43.194;27.646;2022-10-12T10:23:59;32.55;;;30.60;;
6027;SDS011;3042;43.194;27.646;2022-10-12T10:26:29;59.40;;;53.50;;
6027;SDS011;3042;43.194;27.646;2022-10-12T10:29:18;61.73;;;55.23;;
6027;SDS011;3042;43.194;27.646;2022-10-12T10:32:05;61.23;;;54.30;;
6027;SDS011;3042;43.194;27.646;2022-10-12T10:34:39;10.13;;;9.32;;
6027;SDS011;3042;43.194;27.646;2022-10-12T10:37:11;26.27;;;24.53;;
6027;SDS011;3042;43.194;27.646;2022-10-12T10:39:48;77.73;;;59.00;;
6027;SDS011;3042;43.194;27.646;2022-10-12T10:42:19;41.33;;;38.37;;
6027;SDS011;3042;43.194;27.646;2022-10-12T10:44:50;49.80;;;46.40;;
6027;SDS011;3042;43.194;27.646;2022-10-12T10:47:22;61.77;;;56.80;;
6027;SDS011;3042;43.194;27.646;2022-10-12T10:49:53;60.30;;;55.00;;
6027;SDS011;3042;43.194;27.646;2022-10-12T10:52:24;64.43;;;57.67;;
6027;SDS011;3042;43.194;27.646;2022-10-12T10:57:45;52.17;;;48.40;;
6027;SDS011;3042;43.194;27.646;2022-10-12T11:00:20;72.17;;;67.03;;
6027;SDS011;3042;43.194;27.646;2022-10-12T11:02:49;119.80;;;107.07;;
6027;SDS011;3042;43.194;27.646;2022-10-12T11:05:21;117.87;;;106.73;;
6027;SDS011;3042;43.194;27.646;2022-10-12T11:07:53;121.67;;;110.70;;
6027;SDS011;3042;43.194;27.646;2022-10-12T11:10:26;140.37;;;126.97;;
6027;SDS011;3042;43.194;27.646;2022-10-12T11:12:59;123.20;;;110.67;;
6027;SDS011;3042;43.194;27.646;2022-10-12T11:15:37;119.70;;;107.50;;
6027;SDS011;3042;43.194;27.646;2022-10-12T11:18:11;114.33;;;103.53;;
6027;SDS011;3042;43.194;27.646;2022-10-12T11:20:47;105.00;;;95.37;;
6027;SDS011;3042;43.194;27.646;2022-10-12T11:23:32;122.83;;;106.43;;
6027;SDS011;3042;43.194;27.646;2022-10-12T11:26:17;120.67;;;108.33;;
6027;SDS011;3042;43.194;27.646;2022-10-12T11:28:50;120.70;;;107.60;;
6027;SDS011;3042;43.194;27.646;2022-10-12T11:31:20;129.77;;;111.90;;
6027;SDS011;3042;43.194;27.646;2022-10-12T11:33:52;127.80;;;114.30;;
6027;SDS011;3042;43.194;27.646;2022-10-12T11:36:26;74.73;;;66.90;;
6027;SDS011;3042;43.194;27.646;2022-10-12T11:38:57;111.40;;;101.13;;
6027;SDS011;3042;43.194;27.646;2022-10-12T11:41:29;111.43;;;100.93;;
6027;SDS011;3042;43.194;27.646;2022-10-12T11:44:04;86.40;;;78.53;;
6027;SDS011;3042;43.194;27.646;2022-10-12T11:46:41;115.70;;;103.77;;
6027;SDS011;3042;43.194;27.646;2022-10-12T11:49:13;128.87;;;115.30;;
6027;SDS011;3042;43.194;27.646;2022-10-12T11:51:47;134.07;;;119.73;;
6027;SDS011;3042;43.194;27.646;2022-10-12T11:54:20;112.80;;;101.00;;
6027;SDS011;3042;43.194;27.646;2022-10-12T11:56:59;147.00;;;118.60;;
6027;SDS011;3042;43.194;27.646;2022-10-12T11:59:31;156.77;;;127.43;;
6027;SDS011;3042;43.194;27.646;2022-10-12T12:02:12;166.37;;;140.27;;
6027;SDS011;3042;43.194;27.646;2022-10-12T12:04:44;174.87;;;143.40;;
6027;SDS011;3042;43.194;27.646;2022-10-12T12:13:29;174.73;;;134.57;;
6027;SDS011;3042;43.194;27.646;2022-10-12T12:19:13;153.40;;;125.63;;
6027;SDS011;3042;43.194;27.646;2022-10-12T12:24:54;87.90;;;78.30;;
6027;SDS011;3042;43.194;27.646;2022-10-12T12:27:32;106.07;;;89.47;;
6027;SDS011;3042;43.194;27.646;2022-10-12T12:30:05;108.53;;;97.70;;
6027;SDS011;3042;43.194;27.646;2022-10-12T12:32:47;121.47;;;96.93;;
6027;SDS011;3042;43.194;27.646;2022-10-12T12:35:18;109.33;;;93.93;;
6027;SDS011;3042;43.194;27.646;2022-10-12T12:37:48;81.87;;;73.93;;
6027;SDS011;3042;43.194;27.646;2022-10-12T12:40:39;88.60;;;79.40;;
6027;SDS011;3042;43.194;27.646;2022-10-12T12:43:20;87.77;;;74.63;;
6027;SDS011;3042;43.194;27.646;2022-10-12T12:46:09;92.83;;;83.80;;
6027;SDS011;3042;43.194;27.646;2022-10-12T12:48:57;125.53;;;106.23;;
6027;SDS011;3042;43.194;27.646;2022-10-12T12:54:14;147.70;;;108.10;;
6027;SDS011;3042;43.194;27.646;2022-10-12T12:57:10;124.63;;;103.57;;
6027;SDS011;3042;43.194;27.646;2022-10-12T13:00:12;107.20;;;89.80;;
6027;SDS011;3042;43.194;27.646;2022-10-12T13:09:14;88.43;;;80.00;;
6027;SDS011;3042;43.194;27.646;2022-10-12T13:12:12;123.07;;;97.87;;
6027;SDS011;3042;43.194;27.646;2022-10-12T13:21:15;91.90;;;82.40;;
6027;SDS011;3042;43.194;27.646;2022-10-12T13:23:46;152.00;;;129.30;;
6027;SDS011;3042;43.194;27.646;2022-10-12T13:26:16;158.90;;;132.80;;
6027;SDS011;3042;43.194;27.646;2022-10-12T13:28:49;166.10;;;140.83;;
6027;SDS011;3042;43.194;27.646;2022-10-12T13:31:18;263.30;;;172.47;;
6027;SDS011;3042;43.194;27.646;2022-10-12T13:33:52;190.90;;;174.77;;
6027;SDS011;3042;43.194;27.646;2022-10-12T13:36:28;424.43;;;215.93;;
6027;SDS011;3042;43.194;27.646;2022-10-12T13:38:57;346.57;;;198.07;;
6027;SDS011;3042;43.194;27.646;2022-10-12T13:41:26;427.98;;;389.50;;
6027;SDS011;3042;43.194;27.646;2022-10-12T13:43:56;371.73;;;202.20;;
6027;SDS011;3042;43.194;27.646;2022-10-12T13:46:34;319.77;;;181.30;;
6027;SDS011;3042;43.194;27.646;2022-10-12T13:49:11;312.50;;;179.03;;
6027;SDS011;3042;43.194;27.646;2022-10-12T13:51:40;269.53;;;182.47;;
6027;SDS011;3042;43.194;27.646;2022-10-12T13:54:19;254.03;;;175.43;;
6027;SDS011;3042;43.194;27.646;2022-10-12T13:56:49;281.87;;;175.57;;
6027;SDS011;3042;43.194;27.646;2022-10-12T13:59:22;280.07;;;161.43;;
6027;SDS011;3042;43.194;27.646;2022-10-12T14:01:54;276.33;;;178.73;;
6027;SDS011;3042;43.194;27.646;2022-10-12T14:04:26;290.20;;;164.53;;
6027;SDS011;3042;43.194;27.646;2022-10-12T14:06:56;193.43;;;138.33;;
6027;SDS011;3042;43.194;27.646;2022-10-12T14:09:27;216.93;;;168.90;;
6027;SDS011;3042;43.194;27.646;2022-10-12T14:12:07;367.42;;;334.35;;
6027;SDS011;3042;43.194;27.646;2022-10-12T14:14:37;220.60;;;189.20;;
6027;SDS011;3042;43.194;27.646;2022-10-12T14:17:06;324.40;;;193.33;;
6027;SDS011;3042;43.194;27.646;2022-10-12T14:19:42;416.27;;;190.63;;
6027;SDS011;3042;43.194;27.646;2022-10-12T14:22:12;437.07;;;186.30;;
6027;SDS011;3042;43.194;27.646;2022-10-12T14:24:46;373.87;;;156.93;;
6027;SDS011;3042;43.194;27.646;2022-10-12T14:27:19;429.00;;;172.47;;
6027;SDS011;3042;43.194;27.646;2022-10-12T14:29:50;471.73;;;198.77;;
6027;SDS011;3042;43.194;27.646;2022-10-12T14:32:37;415.07;;;201.30;;
6027;SDS011;3042;43.194;27.646;2022-10-12T14:35:11;355.03;;;193.53;;
6027;SDS011;3042;43.194;27.646;2022-10-12T14:37:49;312.07;;;152.80;;
6027;SDS011;3042;43.194;27.646;2022-10-12T14:40:23;432.20;;;178.63;;
6027;SDS011;3042;43.194;27.646;2022-10-12T14:43:04;452.27;;;193.17;;
6027;SDS011;3042;43.194;27.646;2022-10-12T14:45:35;509.80;;;222.60;;
6027;SDS011;3042;43.194;27.646;2022-10-12T14:48:02;498.10;;;180.60;;
6027;SDS011;3042;43.194;27.646;2022-10-12T14:50:31;389.03;;;161.83;;
6027;SDS011;3042;43.194;27.646;2022-10-12T14:52:59;494.63;;;190.70;;
6027;SDS011;3042;43.194;27.646;2022-10-12T14:55:31;494.60;;;181.23;;
6027;SDS011;3042;43.194;27.646;2022-10-12T14:57:59;519.63;;;199.23;;
6027;SDS011;3042;43.194;27.646;2022-10-12T15:00:28;504.53;;;187.60;;
6027;SDS011;3042;43.194;27.646;2022-10-12T15:02:59;518.17;;;182.17;;
6027;SDS011;3042;43.194;27.646;2022-10-12T15:05:27;515.20;;;169.27;;
6027;SDS011;3042;43.194;27.646;2022-10-12T15:07:56;518.83;;;178.57;;
6027;SDS011;3042;43.194;27.646;2022-10-12T15:10:24;534.47;;;179.70;;
6027;SDS011;3042;43.194;27.646;2022-10-12T15:12:52;535.47;;;178.77;;
6027;SDS011;3042;43.194;27.646;2022-10-12T15:15:24;516.88;;;186.75;;
6027;SDS011;3042;43.194;27.646;2022-10-12T15:17:57;521.90;;;176.63;;
6027;SDS011;3042;43.194;27.646;2022-10-12T15:20:30;518.40;;;176.30;;
6027;SDS011;3042;43.194;27.646;2022-10-12T15:22:58;539.73;;;193.20;;
6027;SDS011;3042;43.194;27.646;2022-10-12T15:25:29;541.50;;;183.17;;
6027;SDS011;3042;43.194;27.646;2022-10-12T15:28:07;540.47;;;182.40;;
6027;SDS011;3042;43.194;27.646;2022-10-12T15:30:34;544.83;;;188.23;;
6027;SDS011;3042;43.194;27.646;2022-10-12T15:33:03;547.20;;;174.47;;